createdAt,value
2023-02-24T06:50:07.025Z,199.45
2023-02-24T06:53:16.868Z,195.10
2023-02-24T06:56:19.923Z,206.20
2023-02-24T06:59:21.940Z,217.35
2023-02-24T07:02:26.871Z,189.32
2023-02-24T07:05:34.279Z,206.13
2023-02-24T07:08:36.942Z,185.85
2023-02-24T07:11:45.771Z,168.20
2023-02-24T07:14:50.358Z,174.95
2023-02-24T07:17:54.385Z,176.80
2023-02-24T07:20:56.077Z,170.50
2023-02-24T07:23:59.322Z,206.93
2023-02-24T07:27:03.992Z,213.20
2023-02-24T07:30:09.782Z,203.90
2023-02-24T07:33:12.032Z,216.50
2023-02-24T07:36:15.923Z,204.82
2023-02-24T07:39:19.191Z,186.88
2023-02-24T07:42:21.256Z,216.35
2023-02-24T07:45:23.438Z,199.68
2023-02-24T07:48:25.833Z,206.60
2023-02-24T07:51:29.720Z,181.80
2023-02-24T07:54:31.486Z,157.00
2023-02-24T07:57:33.334Z,161.02
2023-02-24T08:00:51.089Z,146.90
2023-02-24T08:03:57.804Z,142.55
2023-02-24T08:07:03.091Z,135.43
2023-02-24T08:10:24.065Z,127.03
2023-02-24T08:13:25.801Z,120.68
2023-02-24T08:16:39.298Z,120.80
2023-02-24T08:19:40.964Z,123.15
2023-02-24T08:22:46.559Z,128.43
2023-02-24T08:25:48.263Z,126.93
2023-02-24T08:28:51.619Z,130.23
2023-02-24T08:31:53.402Z,133.07
2023-02-24T08:35:02.769Z,128.57
2023-02-24T08:38:07.647Z,151.70
2023-02-24T08:41:18.239Z,130.45
2023-02-24T08:44:20.490Z,128.48
2023-02-24T08:47:30.926Z,124.97
2023-02-24T08:50:33.927Z,127.97
2023-02-24T08:53:40.315Z,121.47
2023-02-24T08:56:49.078Z,124.13
2023-02-24T08:59:51.032Z,116.78
2023-02-24T09:02:56.134Z,128.90
2023-02-24T09:06:06.895Z,136.85
2023-02-24T09:09:17.586Z,120.03
2023-02-24T09:12:24.491Z,123.97
2023-02-24T09:15:41.222Z,128.65
2023-02-24T09:18:43.425Z,115.70
2023-02-24T09:21:47.776Z,121.63
2023-02-24T09:24:51.185Z,118.43
2023-02-24T09:27:56.277Z,124.38
2023-02-24T09:34:03.986Z,135.38
2023-02-24T09:37:05.617Z,118.18
2023-02-24T09:40:15.311Z,135.27
2023-02-24T09:43:27.886Z,136.15
2023-02-24T09:46:54.165Z,156.38
2023-02-24T09:50:03.971Z,167.13
2023-02-24T09:53:17.279Z,170.93
2023-02-24T09:56:30.318Z,188.27
2023-02-24T09:59:36.657Z,199.25
2023-02-24T10:02:46.812Z,164.88
2023-02-24T10:06:25.026Z,191.18
2023-02-24T10:09:41.201Z,175.02
2023-02-24T10:12:42.942Z,190.82
2023-02-24T10:15:59.211Z,178.90
2023-02-24T10:19:16.271Z,176.82
2023-02-24T10:22:40.403Z,180.57
2023-02-24T10:25:54.520Z,177.02
2023-02-24T10:29:08.944Z,179.23
2023-02-24T10:32:33.930Z,171.07
2023-02-24T10:35:36.743Z,169.77
2023-02-24T10:38:45.480Z,170.85
2023-02-24T10:42:15.651Z,175.80
2023-02-24T10:45:24.470Z,165.75
2023-02-24T10:48:40.569Z,158.85
2023-02-24T10:51:50.975Z,156.00
2023-02-24T10:55:08.477Z,168.75
2023-02-24T10:58:28.313Z,161.48
2023-02-24T11:01:43.582Z,158.45
2023-02-24T11:05:04.684Z,157.63
2023-02-24T11:08:11.636Z,157.73
2023-02-24T11:11:25.811Z,144.02
2023-02-24T11:14:46.286Z,141.30
2023-02-24T11:17:53.152Z,144.35
2023-02-24T11:21:03.923Z,138.10
2023-02-24T11:24:06.194Z,128.70
2023-02-24T11:27:10.014Z,132.13
2023-02-24T11:30:43.313Z,129.93
2023-02-24T11:34:10.775Z,124.97
2023-02-24T11:37:27.302Z,124.28
2023-02-24T11:40:34.346Z,117.60
2023-02-24T11:43:40.259Z,116.88
2023-02-24T11:46:48.758Z,125.80
2023-02-24T11:50:04.805Z,118.50
2023-02-24T11:53:23.820Z,108.90
2023-02-24T11:56:33.920Z,101.93
2023-02-24T11:59:38.336Z,112.60
2023-02-24T12:03:04.234Z,165.32
2023-02-24T12:06:19.269Z,118.00
2023-02-24T12:09:26.221Z,102.78
2023-02-24T12:12:44.469Z,99.97
2023-02-24T12:15:58.345Z,100.95
2023-02-24T12:19:12.643Z,102.82
2023-02-24T12:22:15.565Z,89.28
2023-02-24T12:25:22.119Z,91.15
2023-02-24T12:28:57.605Z,81.28
2023-02-24T12:32:11.425Z,78.50
2023-02-24T12:35:20.064Z,82.07
2023-02-24T12:38:45.856Z,80.10
2023-02-24T12:42:12.158Z,89.35
2023-02-24T12:45:31.754Z,89.15
2023-02-24T12:49:04.021Z,59.00
2023-02-24T12:52:24.847Z,71.85
2023-02-24T12:55:40.697Z,62.10
2023-02-24T12:58:48.686Z,55.22
2023-02-24T13:01:59.681Z,64.97
2023-02-24T13:05:20.249Z,55.05
2023-02-24T13:08:45.156Z,49.05
2023-02-24T13:11:54.869Z,51.20
2023-02-24T13:14:56.887Z,56.22
2023-02-24T13:17:59.104Z,52.58
2023-02-24T13:21:18.540Z,54.83
2023-02-24T13:24:22.368Z,49.58
2023-02-24T13:27:29.999Z,52.90
2023-02-24T13:30:42.405Z,50.35
2023-02-24T13:33:45.418Z,57.45
2023-02-24T13:36:49.569Z,51.38
2023-02-24T13:39:51.365Z,58.85
2023-02-24T13:42:56.213Z,69.50
2023-02-24T13:46:00.847Z,53.97
2023-02-24T13:49:26.438Z,43.83
2023-02-24T13:52:56.771Z,57.85
2023-02-24T13:56:24.400Z,54.72
2023-02-24T13:59:43.949Z,52.90
2023-02-24T14:02:46.028Z,48.60
2023-02-24T14:05:49.985Z,51.30
2023-02-24T14:08:55.786Z,61.17
2023-02-24T14:12:14.970Z,47.05
2023-02-24T14:15:21.758Z,53.67
2023-02-24T14:18:27.027Z,57.00
2023-02-24T14:21:33.157Z,53.60
2023-02-24T14:24:34.819Z,63.15
2023-02-24T14:27:38.456Z,61.72
2023-02-24T14:30:41.397Z,66.93
2023-02-24T14:33:45.648Z,59.03
2023-02-24T14:36:49.455Z,58.17
2023-02-24T14:39:57.151Z,71.95
2023-02-24T14:42:58.957Z,64.45
2023-02-24T14:46:05.976Z,55.95
2023-02-24T14:49:25.181Z,64.30
2023-02-24T14:52:34.430Z,63.15
2023-02-24T14:55:40.335Z,73.05
2023-02-24T14:59:05.713Z,73.53
2023-02-24T15:02:18.485Z,76.43
2023-02-24T15:05:21.237Z,68.28
2023-02-24T15:08:35.124Z,70.72
2023-02-24T15:11:37.250Z,65.13
2023-02-24T15:14:40.966Z,74.88
2023-02-24T15:17:42.668Z,66.15
2023-02-24T15:20:44.320Z,67.15
2023-02-24T15:23:47.492Z,70.88
2023-02-24T15:27:14.741Z,64.95
2023-02-24T15:30:26.818Z,70.75
2023-02-24T15:33:39.035Z,66.35
2023-02-24T15:36:40.874Z,72.57
2023-02-24T15:39:44.476Z,68.80
2023-02-24T15:43:16.485Z,65.40
2023-02-24T15:46:34.724Z,67.75
2023-02-24T15:49:36.392Z,59.25
2023-02-24T15:52:38.507Z,61.45
2023-02-24T15:55:42.408Z,63.67
2023-02-24T15:58:44.698Z,56.40
2023-02-24T16:01:46.784Z,57.88
2023-02-24T16:04:50.586Z,61.60
2023-02-24T16:07:54.648Z,58.08
2023-02-24T16:10:56.678Z,60.60
2023-02-24T16:13:59.991Z,65.15
2023-02-24T16:17:06.515Z,60.92
2023-02-24T16:20:13.946Z,61.25
2023-02-24T16:23:15.827Z,66.18
2023-02-24T16:26:20.145Z,65.30
2023-02-24T16:29:22.159Z,57.42
2023-02-24T16:32:25.804Z,55.63
2023-02-24T16:35:28.987Z,60.92
2023-02-24T16:38:30.911Z,68.55
2023-02-24T16:41:33.277Z,58.47
2023-02-24T16:44:34.932Z,63.17
2023-02-24T16:47:37.018Z,70.70
2023-02-24T16:50:41.048Z,68.88
2023-02-24T16:53:43.524Z,69.82
2023-02-24T16:56:46.477Z,65.82
2023-02-24T16:59:48.159Z,67.10
